首页
METAR-TAF:

METAR-TAF

机场 :

图勒空军基地

图勒, 格陵兰

纬度: 76-32N, 经度: 068-42W, 海拔: 77米

当前天气观测

该预报发布于47分钟前的00:55 UTC
风速3节,风向西转西北
温度 -1°C
湿度 74%
气压 1019 hPa
能见度10公里或以上
天空无云

METAR: BGTL 210055Z AUTO 29003KT 9999 CLR M01/M05 A3009 RMK AO2 SLP175 T10121051 TSNO $

时间: 22:42 (01:42 UTC)

预报

该预报发布于6小时和42分钟前的19:00 UTC
预报有效从20日的 19点(UTC)到 22日的 01点(UTC)
风速6节,风向多变
能见度10公里或以上
天空无云
成为
从 21日的 11点(UTC)到 21日的 12点(UTC)
风速9节,风向
能見度: 2111
散云层高于8000英尺

TAF: BGTL 201900Z 2019/2201 VRB06KT 9999 SKC QNH3001INS BECMG 2111/2112 10009KT 9999 SCT080 QNH3002INS TX00/2019Z TNM05/2106Z LAST NO AMDS AFT 2019 NEXT 2111

超过4000个机场的气象观测和天气预报(METAR&TAF报告)。

可查询的气象台以黄色和红色小点在地图上表示。

将鼠标移到小点上方,可查看气象台名称。

然后点击查看天气观测和预报。

如需切换地图:点击带黑十字的绿色按钮放大地图;点击带横线的绿色按钮缩小地图;或者点击绿色箭头查看邻近地区的地图。


METAR-TAF: